Time;durP1;ratioP1;P1;durP2;ratioP2;P2;SDS_P1;SDS_P2;PMS_P1;PMS_P2;Temp;Humidity;BMP_temperature;BMP_pressure;BME280_temperature;BME280_humidity;BME280_pressure;Samples;Min_cycle;Max_cycle;Signal;HPM_P1;HPM_P2
2024/01/19 00:00:47;;;;;;;29.80;28.05;;;-1.00;99.90;;;;;;4986321;28;20060;-43
2024/01/19 00:03:13;;;;;;;23.73;21.92;;;-0.80;99.90;;;;;;4981697;28;20054;-42
2024/01/19 00:05:39;;;;;;;26.13;24.48;;;-0.70;99.90;;;;;;4986031;28;20189;-44
2024/01/19 00:08:05;;;;;;;27.88;25.58;;;-0.70;99.90;;;;;;4983446;28;20415;-43
2024/01/19 00:10:32;;;;;;;19.23;17.73;;;-0.60;99.90;;;;;;4983039;28;20042;-43
2024/01/19 00:12:58;;;;;;;28.42;26.50;;;-0.60;99.90;;;;;;4990003;28;20057;-43
2024/01/19 00:15:24;;;;;;;25.42;23.52;;;-0.60;99.90;;;;;;4983641;28;20062;-43
2024/01/19 00:17:50;;;;;;;23.25;21.70;;;-0.70;99.90;;;;;;4990053;28;20523;-42
2024/01/19 00:20:16;;;;;;;21.80;20.55;;;-0.70;99.90;;;;;;4967996;28;20058;-42
2024/01/19 00:22:41;;;;;;;24.25;22.58;;;-0.70;99.90;;;;;;4976079;28;20050;-43
2024/01/19 00:25:07;;;;;;;23.35;21.75;;;-0.80;99.90;;;;;;4981083;28;20076;-43
2024/01/19 00:27:33;;;;;;;21.23;20.08;;;-0.80;99.90;;;;;;4981709;28;20800;-42
2024/01/19 00:29:59;;;;;;;23.77;22.35;;;-0.80;99.90;;;;;;4983014;28;20130;-41
2024/01/19 00:32:24;;;;;;;22.10;20.80;;;-0.90;99.90;;;;;;4982416;28;20626;-43
2024/01/19 00:34:50;;;;;;;25.52;23.58;;;-0.90;99.90;;;;;;4967172;28;20060;-40
2024/01/19 00:37:16;;;;;;;24.42;22.90;;;-1.00;99.90;;;;;;4986192;28;20054;-42
2024/01/19 00:39:41;;;;;;;30.60;28.65;;;-1.00;99.90;;;;;;4986055;28;20105;-41
2024/01/19 00:42:07;;;;;;;28.70;27.13;;;-1.00;99.90;;;;;;4982164;28;20074;-39
2024/01/19 00:44:33;;;;;;;29.25;27.60;;;-1.10;99.90;;;;;;4986475;28;20162;-42
2024/01/19 00:46:59;;;;;;;28.30;26.65;;;-1.10;99.90;;;;;;4988148;28;20455;-39
2024/01/19 00:49:25;;;;;;;31.38;29.48;;;-1.20;99.90;;;;;;4985497;28;20377;-43
2024/01/19 00:51:50;;;;;;;31.45;29.70;;;-1.20;99.90;;;;;;4988605;28;20046;-41
2024/01/19 00:54:16;;;;;;;35.53;33.70;;;-1.20;99.90;;;;;;4980985;28;20086;-43
2024/01/19 00:56:42;;;;;;;25.73;24.40;;;-1.30;99.90;;;;;;4978896;28;20447;-44
2024/01/19 00:59:08;;;;;;;32.70;30.92;;;-1.30;99.90;;;;;;4984965;28;20049;-42
2024/01/19 01:01:34;;;;;;;33.55;31.58;;;-1.20;99.90;;;;;;4979910;28;20058;-42
2024/01/19 01:04:02;;;;;;;33.13;31.05;;;-1.10;99.90;;;;;;4981382;28;20513;-41
2024/01/19 01:06:28;;;;;;;31.45;29.83;;;-1.10;99.90;;;;;;4984228;28;20141;-42
2024/01/19 01:08:54;;;;;;;38.15;35.83;;;-1.10;99.90;;;;;;4986969;28;20055;-43
2024/01/19 01:11:20;;;;;;;38.78;36.85;;;-1.10;99.90;;;;;;4982111;28;20699;-42
2024/01/19 01:13:47;;;;;;;39.97;37.72;;;-1.10;99.90;;;;;;4984854;28;20534;-42
2024/01/19 01:16:13;;;;;;;42.95;40.42;;;-1.10;99.90;;;;;;4985288;28;20473;-42
2024/01/19 01:18:40;;;;;;;43.20;40.72;;;-1.10;99.90;;;;;;4984816;28;20055;-41
2024/01/19 01:21:06;;;;;;;46.22;43.58;;;-1.10;99.90;;;;;;4985920;28;20258;-42
2024/01/19 01:23:32;;;;;;;51.03;48.28;;;-1.10;99.90;;;;;;4981863;28;20058;-43
2024/01/19 01:25:58;;;;;;;40.33;38.13;;;-1.10;99.90;;;;;;4983714;28;20128;-43
2024/01/19 01:28:24;;;;;;;44.83;42.25;;;-1.00;99.90;;;;;;4979361;28;20421;-43
2024/01/19 01:30:49;;;;;;;52.67;50.03;;;-1.00;99.90;;;;;;4990035;28;20047;-42
2024/01/19 01:33:15;;;;;;;43.50;41.03;;;-1.00;99.90;;;;;;4982335;28;20528;-42
2024/01/19 01:35:41;;;;;;;62.90;59.80;;;-1.10;99.90;;;;;;4983498;28;20409;-42
2024/01/19 01:38:07;;;;;;;57.17;53.65;;;-1.10;99.90;;;;;;4981706;28;20050;-41
2024/01/19 01:40:33;;;;;;;56.88;53.92;;;-1.10;99.90;;;;;;4979681;28;20434;-42
2024/01/19 01:43:01;;;;;;;56.55;53.47;;;-1.00;99.90;;;;;;4980880;28;20056;-42
2024/01/19 01:45:27;;;;;;;47.40;44.83;;;-1.00;99.90;;;;;;4983791;28;20061;-43
2024/01/19 01:47:53;;;;;;;41.70;39.38;;;-1.00;99.90;;;;;;4984417;28;20137;-43
2024/01/19 01:50:18;;;;;;;46.22;43.67;;;-1.00;99.90;;;;;;4984069;28;20137;-43
2024/01/19 01:52:45;;;;;;;49.92;46.95;;;-1.00;99.90;;;;;;4989610;28;20050;-41
2024/01/19 01:55:11;;;;;;;34.88;32.88;;;-1.00;99.90;;;;;;4982839;28;20393;-41
2024/01/19 01:57:36;;;;;;;35.55;33.58;;;-0.90;99.90;;;;;;4986374;28;20066;-41
2024/01/19 02:00:03;;;;;;;31.80;29.40;;;-0.90;99.90;;;;;;4963677;28;20051;-43
2024/01/19 02:02:28;;;;;;;35.10;32.80;;;-0.90;99.90;;;;;;4980501;28;20069;-40
2024/01/19 02:04:54;;;;;;;34.35;32.55;;;-0.80;99.90;;;;;;4988197;28;20492;-42
2024/01/19 02:07:20;;;;;;;31.95;29.92;;;-0.80;99.90;;;;;;4982228;28;20065;-40
2024/01/19 02:09:45;;;;;;;30.85;29.15;;;-0.80;99.90;;;;;;4985987;28;20065;-43
2024/01/19 02:12:12;;;;;;;29.98;28.27;;;-0.80;99.90;;;;;;4979664;28;20062;-42
2024/01/19 02:14:38;;;;;;;27.67;26.08;;;-0.80;99.90;;;;;;4989182;28;20152;-42
2024/01/19 02:17:03;;;;;;;24.73;23.17;;;-0.80;99.90;;;;;;4988992;28;20050;-40
2024/01/19 02:19:29;;;;;;;26.75;25.20;;;-0.80;99.90;;;;;;4974298;28;20137;-42
2024/01/19 02:21:55;;;;;;;33.00;31.08;;;-0.80;99.90;;;;;;4985146;28;20459;-42
2024/01/19 02:24:21;;;;;;;32.03;30.33;;;-0.80;99.90;;;;;;4983169;28;20073;-40
2024/01/19 02:26:47;;;;;;;39.38;37.33;;;-0.90;99.90;;;;;;4987432;28;20206;-42
2024/01/19 02:29:12;;;;;;;38.13;36.05;;;-0.90;99.90;;;;;;4982639;28;20135;-43
2024/01/19 02:31:39;;;;;;;36.40;34.40;;;-0.90;99.90;;;;;;4981949;28;20046;-43
2024/01/19 02:34:05;;;;;;;35.42;33.28;;;-1.00;99.90;;;;;;4984354;28;20599;-42
2024/01/19 02:36:30;;;;;;;43.28;40.65;;;-1.00;99.90;;;;;;4985529;28;20419;-42
2024/01/19 02:38:56;;;;;;;46.17;43.67;;;-1.00;99.90;;;;;;4982938;28;20109;-43
2024/01/19 02:41:22;;;;;;;44.00;41.63;;;-0.90;99.90;;;;;;4985620;28;20113;-43
2024/01/19 02:43:47;;;;;;;43.22;40.63;;;-0.90;99.90;;;;;;4982876;28;20049;-44
2024/01/19 02:46:15;;;;;;;30.25;28.42;;;-0.80;99.90;;;;;;4985514;28;20055;-41
2024/01/19 02:48:41;;;;;;;24.05;22.48;;;-0.80;99.90;;;;;;4988996;28;20050;-42
2024/01/19 02:51:06;;;;;;;17.15;15.70;;;-0.70;99.90;;;;;;4989633;28;20076;-42
2024/01/19 02:53:32;;;;;;;13.70;12.80;;;-0.50;99.90;;;;;;4988994;28;20049;-43
2024/01/19 02:55:59;;;;;;;10.40;9.80;;;-0.40;99.90;;;;;;4983764;28;20058;-43
2024/01/19 02:58:25;;;;;;;13.82;12.90;;;-0.20;99.90;;;;;;4982207;28;20046;-43
2024/01/19 03:00:51;;;;;;;16.15;15.15;;;-0.10;99.90;;;;;;4972938;28;20054;-42
2024/01/19 03:03:17;;;;;;;16.27;15.30;;;-0.10;99.90;;;;;;4986716;28;20062;-44
2024/01/19 03:05:42;;;;;;;17.35;16.33;;;0.10;99.90;;;;;;4984255;28;20050;-42
2024/01/19 03:08:08;;;;;;;17.88;16.83;;;0.10;99.90;;;;;;4985485;28;20050;-41
2024/01/19 03:10:34;;;;;;;17.45;16.25;;;0.10;99.90;;;;;;4966588;28;20374;-42
2024/01/19 03:12:59;;;;;;;20.45;19.23;;;0.20;99.90;;;;;;4986393;28;20497;-43
2024/01/19 03:15:25;;;;;;;22.85;21.60;;;0.30;99.90;;;;;;4985809;28;20057;-43
2024/01/19 03:17:51;;;;;;;20.02;18.98;;;0.30;99.90;;;;;;4985489;28;20042;-42
2024/01/19 03:20:16;;;;;;;20.77;19.45;;;0.30;99.90;;;;;;4985957;28;20084;-44
2024/01/19 03:22:42;;;;;;;20.33;19.23;;;0.30;99.90;;;;;;4986075;28;20448;-43
2024/01/19 03:25:08;;;;;;;18.95;17.85;;;0.30;99.90;;;;;;4957916;28;20054;-41
2024/01/19 03:27:33;;;;;;;17.55;16.38;;;0.30;99.90;;;;;;4966777;28;20062;-42
2024/01/19 03:29:59;;;;;;;17.27;16.13;;;0.30;99.90;;;;;;4969566;28;20511;-41
2024/01/19 03:32:25;;;;;;;17.48;16.48;;;0.10;99.90;;;;;;4973423;28;20093;-42
2024/01/19 03:34:51;;;;;;;16.42;15.43;;;0.10;99.90;;;;;;4964888;28;20061;-42
2024/01/19 03:37:16;;;;;;;16.45;15.48;;;0.10;99.90;;;;;;4971236;28;20100;-42
2024/01/19 03:39:42;;;;;;;17.73;16.60;;;0.00;99.90;;;;;;4971609;28;20046;-42
2024/01/19 03:42:08;;;;;;;18.38;17.27;;;0.00;99.90;;;;;;4965561;28;20436;-43
2024/01/19 03:44:34;;;;;;;17.73;16.65;;;0.00;99.90;;;;;;4962426;28;20111;-42
2024/01/19 03:46:59;;;;;;;13.98;12.98;;;-0.10;99.90;;;;;;4965214;28;20563;-39
2024/01/19 03:49:25;;;;;;;16.50;15.20;;;-0.10;99.90;;;;;;4961277;28;20104;-43
2024/01/19 03:52:07;;;;;;;18.63;17.27;;;0.00;99.90;;;;;;4966521;28;20059;-42
2024/01/19 03:54:34;;;;;;;18.92;17.73;;;-0.10;99.90;;;;;;4957312;28;20137;-42
2024/01/19 03:57:02;;;;;;;19.35;18.20;;;-0.10;99.90;;;;;;4964426;28;20112;-41
2024/01/19 03:59:28;;;;;;;20.35;18.80;;;-0.10;99.90;;;;;;4962287;28;20050;-42
2024/01/19 04:01:55;;;;;;;18.10;16.63;;;0.00;99.90;;;;;;4958332;28;20055;-42
2024/01/19 04:04:22;;;;;;;21.17;19.52;;;0.10;99.90;;;;;;4955573;28;20062;-43
2024/01/19 04:06:47;;;;;;;18.10;16.60;;;0.20;99.90;;;;;;4963996;28;20069;-43
2024/01/19 04:09:16;;;;;;;16.88;15.70;;;0.30;99.90;;;;;;4963451;28;20054;-43
2024/01/19 04:11:42;;;;;;;17.85;16.83;;;0.40;99.90;;;;;;4970908;28;20504;-43
2024/01/19 04:14:08;;;;;;;16.20;15.30;;;0.40;99.90;;;;;;4964012;28;20955;-42
2024/01/19 04:16:34;;;;;;;17.23;16.10;;;0.40;99.90;;;;;;4973928;28;20078;-43
2024/01/19 04:19:00;;;;;;;14.55;13.73;;;0.40;99.90;;;;;;4967967;28;20227;-42
2024/01/19 04:21:25;;;;;;;13.50;12.73;;;0.40;99.90;;;;;;4966291;28;20074;-43
2024/01/19 04:23:51;;;;;;;17.00;15.90;;;0.40;99.90;;;;;;4969864;28;20417;-43
2024/01/19 04:26:18;;;;;;;14.13;13.27;;;0.30;99.90;;;;;;4982386;28;20082;-44
2024/01/19 04:28:43;;;;;;;16.73;15.80;;;0.30;99.90;;;;;;4983798;28;20074;-43
2024/01/19 04:31:09;;;;;;;18.25;17.02;;;0.30;99.90;;;;;;4980800;28;20053;-43
2024/01/19 04:33:35;;;;;;;18.33;17.30;;;0.20;99.90;;;;;;4973029;28;20105;-42
2024/01/19 04:36:00;;;;;;;20.52;19.17;;;0.10;99.90;;;;;;4988334;28;20050;-42
2024/01/19 04:38:26;;;;;;;21.88;20.67;;;0.00;99.90;;;;;;4983848;28;20396;-42
2024/01/19 04:40:52;;;;;;;23.98;22.60;;;-0.10;99.90;;;;;;4984106;28;20054;-42
2024/01/19 04:43:17;;;;;;;27.05;25.73;;;-0.20;99.90;;;;;;4980944;28;20043;-43
2024/01/19 04:45:44;;;;;;;30.77;29.13;;;-0.40;99.90;;;;;;4993459;28;20440;-42
2024/01/19 04:48:10;;;;;;;34.70;33.08;;;-0.50;99.90;;;;;;4980030;28;20046;-42
2024/01/19 04:50:37;;;;;;;34.55;32.83;;;-0.50;99.90;;;;;;4982777;28;20068;-41
2024/01/19 04:53:03;;;;;;;41.85;39.75;;;-0.60;99.90;;;;;;4984608;28;20043;-41
2024/01/19 04:55:28;;;;;;;43.03;40.88;;;-0.70;99.90;;;;;;4980696;28;20400;-43
2024/01/19 04:57:54;;;;;;;43.50;41.42;;;-0.80;99.90;;;;;;4979437;28;20108;-43
2024/01/19 05:00:21;;;;;;;45.05;42.72;;;-0.80;99.90;;;;;;4983775;28;20070;-41
2024/01/19 05:02:48;;;;;;;45.33;43.17;;;-0.90;99.90;;;;;;4956119;28;20038;-42
2024/01/19 05:05:14;;;;;;;49.40;47.03;;;-0.90;99.90;;;;;;4981432;28;20137;-42
2024/01/19 05:07:40;;;;;;;52.53;50.10;;;-0.90;99.90;;;;;;4976574;28;20242;-40
2024/01/19 05:10:07;;;;;;;38.42;36.58;;;-0.80;99.90;;;;;;4980643;28;20173;-42
2024/01/19 05:12:33;;;;;;;40.13;38.10;;;-0.80;99.90;;;;;;4982929;28;20058;-43
2024/01/19 05:14:59;;;;;;;39.17;36.92;;;-0.70;99.90;;;;;;4985772;28;20571;-42
2024/01/19 05:17:25;;;;;;;32.92;31.30;;;-0.70;99.90;;;;;;4986645;28;20046;-42
2024/01/19 05:19:50;;;;;;;32.58;30.70;;;-0.60;99.90;;;;;;4982937;28;20437;-41
2024/01/19 05:22:16;;;;;;;30.67;28.95;;;-0.50;99.90;;;;;;4983766;28;20386;-42
2024/01/19 05:24:43;;;;;;;25.85;24.60;;;-0.50;99.90;;;;;;4982402;28;20630;-41
2024/01/19 05:27:09;;;;;;;28.13;26.75;;;-0.40;99.90;;;;;;4984611;28;20058;-42
2024/01/19 05:29:35;;;;;;;28.95;27.25;;;-0.40;99.90;;;;;;4984906;28;20061;-43
2024/01/19 05:32:01;;;;;;;30.67;28.92;;;-0.40;99.90;;;;;;4985466;28;20424;-43
2024/01/19 05:34:27;;;;;;;33.20;31.60;;;-0.40;99.90;;;;;;4984321;28;20137;-42
2024/01/19 05:36:53;;;;;;;33.67;32.03;;;-0.40;99.90;;;;;;4982627;28;20062;-41
2024/01/19 05:39:19;;;;;;;38.35;36.13;;;-0.50;99.90;;;;;;4984456;28;20050;-40
2024/01/19 05:41:45;;;;;;;38.13;36.00;;;-0.60;99.90;;;;;;4984734;28;20475;-43
2024/01/19 05:44:10;;;;;;;41.55;39.60;;;-0.60;99.90;;;;;;4984722;28;20087;-43
2024/01/19 05:46:36;;;;;;;43.72;41.47;;;-0.80;99.90;;;;;;4984600;28;20050;-39
2024/01/19 05:49:02;;;;;;;40.67;38.75;;;-0.90;99.90;;;;;;4983171;28;20062;-42
2024/01/19 05:51:28;;;;;;;44.65;42.42;;;-0.90;99.90;;;;;;4982486;28;20109;-42
2024/01/19 05:53:53;;;;;;;49.65;47.17;;;-1.00;99.90;;;;;;4982884;28;20050;-42
2024/01/19 05:56:19;;;;;;;49.75;47.42;;;-1.00;99.90;;;;;;4974749;28;20198;-43
2024/01/19 05:58:45;;;;;;;48.60;46.28;;;-1.10;99.90;;;;;;4982776;28;20045;-43
2024/01/19 06:01:11;;;;;;;51.72;49.08;;;-1.10;99.90;;;;;;4982654;28;20096;-43
2024/01/19 06:03:37;;;;;;;54.88;52.15;;;-1.20;99.90;;;;;;4984041;28;20124;-40
2024/01/19 06:06:04;;;;;;;55.45;52.58;;;-1.20;99.90;;;;;;4984332;28;20046;-42
2024/01/19 06:08:30;;;;;;;60.88;57.92;;;-1.30;99.90;;;;;;4984867;28;20539;-42
2024/01/19 06:10:56;;;;;;;49.88;47.47;;;-1.30;99.90;;;;;;4983210;28;20510;-42
2024/01/19 06:13:23;;;;;;;46.83;44.40;;;-1.30;99.90;;;;;;4983070;28;20145;-42
2024/01/19 06:15:48;;;;;;;45.92;43.63;;;-1.40;99.90;;;;;;4982726;28;20042;-43
2024/01/19 06:18:14;;;;;;;51.80;49.40;;;-1.40;99.90;;;;;;4984455;28;20118;-42
2024/01/19 06:20:42;;;;;;;46.97;44.78;;;-1.40;99.90;;;;;;4982924;28;20060;-42
2024/01/19 06:23:10;;;;;;;44.22;42.05;;;-1.40;99.90;;;;;;4984038;28;20054;-41
2024/01/19 06:25:36;;;;;;;43.53;41.28;;;-1.50;99.90;;;;;;4985022;28;20054;-43
2024/01/19 06:28:02;;;;;;;47.42;45.08;;;-1.50;99.90;;;;;;4983368;28;20050;-43
2024/01/19 06:30:28;;;;;;;39.38;37.40;;;-1.60;99.90;;;;;;4980066;28;20069;-42
2024/01/19 06:32:55;;;;;;;36.03;34.25;;;-1.70;99.90;;;;;;4977304;28;20046;-43
2024/01/19 06:35:21;;;;;;;40.95;38.95;;;-1.70;99.90;;;;;;4985407;28;20050;-41
2024/01/19 06:37:46;;;;;;;39.45;37.25;;;-1.70;99.90;;;;;;4984782;28;20061;-42
2024/01/19 06:40:14;;;;;;;45.70;43.42;;;-1.80;99.90;;;;;;4982162;28;20500;-41
2024/01/19 06:42:41;;;;;;;41.13;39.22;;;-1.80;99.90;;;;;;4982718;28;20054;-42
2024/01/19 06:45:07;;;;;;;42.80;40.55;;;-1.90;99.90;;;;;;4981805;28;20381;-41
2024/01/19 06:47:33;;;;;;;39.40;37.42;;;-1.90;99.90;;;;;;4959262;28;20501;-42
2024/01/19 06:49:58;;;;;;;44.45;42.05;;;-1.90;99.90;;;;;;4967104;28;20061;-44
2024/01/19 06:52:24;;;;;;;40.40;38.42;;;-1.90;99.90;;;;;;4984034;28;20133;-42
2024/01/19 06:54:50;;;;;;;45.00;42.65;;;-1.90;99.90;;;;;;4981508;28;20057;-43
2024/01/19 06:57:16;;;;;;;44.15;41.88;;;-1.80;99.90;;;;;;4966659;28;20054;-42
2024/01/19 06:59:41;;;;;;;35.05;33.35;;;-1.80;99.90;;;;;;4981895;28;20448;-42
2024/01/19 07:02:07;;;;;;;40.92;38.83;;;-1.70;99.90;;;;;;4978996;28;20500;-42
2024/01/19 07:04:33;;;;;;;41.10;38.83;;;-1.80;99.90;;;;;;4963630;28;20416;-42
2024/01/19 07:06:59;;;;;;;35.20;33.25;;;-1.80;99.90;;;;;;4975790;28;20459;-40
2024/01/19 07:09:28;;;;;;;32.50;30.48;;;-1.80;99.90;;;;;;4975382;28;20089;-43
2024/01/19 07:11:53;;;;;;;29.63;28.02;;;-1.70;99.90;;;;;;4975667;28;20050;-41
2024/01/19 07:14:19;;;;;;;31.17;29.38;;;-1.70;99.90;;;;;;4977338;28;20551;-42
2024/01/19 07:16:45;;;;;;;28.77;27.25;;;-1.60;99.90;;;;;;4976953;28;20112;-40
2024/01/19 07:19:11;;;;;;;31.45;29.85;;;-1.50;99.90;;;;;;4976212;28;20408;-42
2024/01/19 07:21:40;;;;;;;32.25;30.55;;;-1.40;99.90;;;;;;4978149;28;20046;-40
2024/01/19 07:24:10;;;;;;;30.80;29.15;;;-1.30;99.90;;;;;;4977144;28;20596;-42
2024/01/19 07:26:36;;;;;;;34.35;32.55;;;-1.30;99.90;;;;;;4960183;28;20082;-42
2024/01/19 07:29:06;;;;;;;34.85;32.65;;;-1.20;99.90;;;;;;4979581;28;20389;-41
2024/01/19 07:31:32;;;;;;;36.75;34.75;;;-1.30;99.90;;;;;;4978944;28;20765;-42
2024/01/19 07:33:58;;;;;;;31.10;29.60;;;-1.30;99.90;;;;;;4976209;28;20145;-42
2024/01/19 07:36:23;;;;;;;39.38;37.05;;;-1.40;99.90;;;;;;4977608;28;20038;-42
2024/01/19 07:38:49;;;;;;;53.05;50.28;;;-1.40;99.90;;;;;;4981952;28;20400;-39
2024/01/19 07:41:15;;;;;;;36.50;34.70;;;-1.40;99.90;;;;;;4977165;28;20058;-40
2024/01/19 07:43:40;;;;;;;34.13;32.40;;;-1.40;99.90;;;;;;4984160;28;20047;-42
2024/01/19 07:46:06;;;;;;;32.88;31.08;;;-1.40;99.90;;;;;;4980911;28;20058;-40
2024/01/19 07:48:32;;;;;;;31.48;29.80;;;-1.50;99.90;;;;;;4979247;28;20042;-42
2024/01/19 07:50:58;;;;;;;35.78;33.80;;;-1.50;99.90;;;;;;4989483;28;20048;-43
2024/01/19 07:53:23;;;;;;;31.83;30.02;;;-1.50;99.90;;;;;;4980940;28;20057;-43
2024/01/19 07:55:49;;;;;;;41.60;39.50;;;-1.50;99.90;;;;;;4978001;28;20138;-41
2024/01/19 07:58:16;;;;;;;28.52;27.10;;;-1.60;99.90;;;;;;4985944;28;20386;-43
2024/01/19 08:00:41;;;;;;;28.83;27.38;;;-1.60;99.90;;;;;;4963894;28;20756;-42
2024/01/19 08:03:08;;;;;;;33.63;31.83;;;-1.60;99.90;;;;;;4985090;28;20057;-42
2024/01/19 08:05:34;;;;;;;33.22;31.25;;;-1.70;99.90;;;;;;4986802;28;20058;-41
2024/01/19 08:07:59;;;;;;;34.38;32.65;;;-1.70;99.90;;;;;;4978569;28;20448;-41
2024/01/19 08:10:25;;;;;;;36.03;33.95;;;-1.70;99.90;;;;;;4976079;28;20062;-42
2024/01/19 08:12:51;;;;;;;32.28;30.67;;;-1.70;99.90;;;;;;4979750;28;20062;-45
2024/01/19 08:15:17;;;;;;;35.38;33.40;;;-1.70;99.90;;;;;;4980435;28;20069;-41
2024/01/19 08:17:42;;;;;;;31.15;29.25;;;-1.70;99.90;;;;;;4991339;28;20456;-42
2024/01/19 08:20:11;;;;;;;33.92;31.85;;;-1.70;99.90;;;;;;4974245;28;20053;-42
2024/01/19 08:22:37;;;;;;;36.05;34.08;;;-1.70;99.90;;;;;;4984822;28;20145;-40
2024/01/19 08:25:04;;;;;;;30.73;28.95;;;-1.60;99.90;;;;;;4987048;28;20145;-40
2024/01/19 08:27:30;;;;;;;35.08;33.05;;;-1.60;99.90;;;;;;4982256;28;20050;-40
2024/01/19 08:29:56;;;;;;;30.85;29.13;;;-1.50;99.90;;;;;;4982391;28;20065;-42
2024/01/19 08:32:24;;;;;;;36.65;34.40;;;-1.50;99.90;;;;;;4982566;28;20061;-43
2024/01/19 08:34:50;;;;;;;31.15;29.02;;;-1.40;99.90;;;;;;4987275;28;20050;-42
2024/01/19 08:37:16;;;;;;;38.20;36.15;;;-1.40;99.90;;;;;;4976032;28;20065;-41
2024/01/19 08:39:43;;;;;;;41.95;39.60;;;-1.30;99.90;;;;;;4979637;28;20704;-42
2024/01/19 08:42:09;;;;;;;32.58;30.73;;;-1.30;99.90;;;;;;4963517;28;20062;-43
2024/01/19 08:44:35;;;;;;;36.08;34.03;;;-1.30;99.90;;;;;;4978217;28;20409;-42
2024/01/19 08:47:00;;;;;;;31.75;29.90;;;-1.40;99.90;;;;;;4983933;28;20107;-42
2024/01/19 08:49:26;;;;;;;35.40;33.17;;;-1.30;99.90;;;;;;4979687;28;20050;-43
2024/01/19 08:51:53;;;;;;;38.90;36.75;;;-1.30;99.90;;;;;;4982104;28;20054;-43
2024/01/19 08:54:19;;;;;;;37.95;35.50;;;-1.30;99.90;;;;;;4981240;28;20065;-43
2024/01/19 08:56:45;;;;;;;37.28;35.00;;;-1.20;99.90;;;;;;4991348;28;20042;-42
2024/01/19 08:59:12;;;;;;;38.75;36.40;;;-1.20;99.90;;;;;;4989309;28;20042;-43
2024/01/19 09:01:38;;;;;;;46.85;44.08;;;-1.10;99.90;;;;;;4981818;28;20108;-42
2024/01/19 09:04:04;;;;;;;37.22;35.25;;;-1.10;99.90;;;;;;4987157;28;20108;-43
2024/01/19 09:06:30;;;;;;;41.47;39.20;;;-1.10;99.90;;;;;;4961523;28;20146;-42
2024/01/19 09:09:01;;;;;;;35.45;33.38;;;-1.10;99.90;;;;;;4991844;28;20108;-43
2024/01/19 09:11:26;;;;;;;44.15;41.70;;;-1.10;99.90;;;;;;4991199;28;20559;-43
2024/01/19 09:13:52;;;;;;;38.80;36.53;;;-1.10;99.90;;;;;;4983387;28;20058;-43
2024/01/19 09:16:19;;;;;;;46.70;43.90;;;-1.10;99.90;;;;;;4983373;28;20517;-43
2024/01/19 09:18:45;;;;;;;42.20;39.80;;;-1.00;99.90;;;;;;4986119;28;21179;-43
2024/01/19 09:21:17;;;;;;;46.58;43.78;;;-0.90;99.90;;;;;;4987597;28;20054;-42
2024/01/19 09:23:42;;;;;;;57.87;54.60;;;-0.90;99.90;;;;;;4987573;28;20407;-42
2024/01/19 09:26:16;;;;;;;45.40;42.90;;;-0.90;99.90;;;;;;4985954;28;20053;-42
2024/01/19 09:28:41;;;;;;;47.08;44.42;;;-0.90;99.90;;;;;;4985492;28;20050;-43
2024/01/19 09:31:07;;;;;;;47.05;44.47;;;-0.90;99.90;;;;;;4988850;28;20050;-42
2024/01/19 09:33:33;;;;;;;42.45;40.10;;;-0.80;99.90;;;;;;4984544;28;20046;-43
2024/01/19 09:35:58;;;;;;;43.08;40.65;;;-0.80;99.90;;;;;;4987236;28;20412;-43
2024/01/19 09:38:24;;;;;;;43.08;40.45;;;-0.70;99.90;;;;;;4984567;28;20058;-43
2024/01/19 09:40:59;;;;;;;40.55;38.40;;;-0.60;99.90;;;;;;4986030;28;20050;-42
2024/01/19 09:43:25;;;;;;;46.53;43.95;;;-0.60;99.90;;;;;;4983687;28;20050;-43
2024/01/19 09:45:53;;;;;;;36.08;34.15;;;-0.50;99.90;;;;;;4983106;28;20394;-43
2024/01/19 09:48:24;;;;;;;34.60;32.47;;;-0.50;99.90;;;;;;4985197;28;20054;-42
2024/01/19 09:50:53;;;;;;;33.63;31.73;;;-0.40;99.90;;;;;;4987976;28;20057;-42
2024/01/19 09:53:32;;;;;;;30.35;28.40;;;-0.40;99.90;;;;;;4985025;28;20454;-42
2024/01/19 09:56:01;;;;;;;31.98;30.23;;;-0.30;99.90;;;;;;4986855;28;20053;-42
2024/01/19 09:58:27;;;;;;;31.83;29.58;;;-0.30;99.90;;;;;;4981303;28;20042;-42
2024/01/19 10:00:53;;;;;;;27.55;25.80;;;-0.20;99.90;;;;;;4989265;28;20042;-42
2024/01/19 10:03:21;;;;;;;22.92;21.08;;;-0.10;99.90;;;;;;4989162;28;20054;-42
2024/01/19 10:05:48;;;;;;;20.05;18.35;;;-0.10;99.90;;;;;;4984021;28;20054;-41
2024/01/19 10:08:14;;;;;;;17.40;15.88;;;0.00;99.90;;;;;;4983246;28;20050;-42
2024/01/19 10:10:42;;;;;;;16.73;13.93;;;0.10;99.90;;;;;;4985584;28;20057;-42
2024/01/19 10:13:08;;;;;;;12.40;11.32;;;0.20;99.90;;;;;;4944574;28;20055;-42
2024/01/19 10:15:34;;;;;;;9.93;9.07;;;0.20;99.90;;;;;;4987043;28;20121;-42
2024/01/19 10:18:00;;;;;;;10.95;8.43;;;0.40;99.90;;;;;;4986645;28;20456;-43
2024/01/19 10:20:26;;;;;;;7.75;6.53;;;0.40;99.90;;;;;;4983725;28;20046;-41
2024/01/19 10:22:52;;;;;;;7.45;6.55;;;0.50;99.90;;;;;;4985208;28;20104;-43
2024/01/19 10:25:18;;;;;;;7.70;6.32;;;0.60;99.90;;;;;;4983290;28;20062;-41
2024/01/19 10:27:52;;;;;;;9.57;6.07;;;0.70;99.90;;;;;;4965975;28;20050;-42
2024/01/19 10:30:24;;;;;;;7.53;6.80;;;0.80;99.90;;;;;;4981550;28;20063;-42
2024/01/19 10:32:51;;;;;;;10.35;9.40;;;0.90;99.90;;;;;;4981095;28;20050;-41
2024/01/19 10:35:19;;;;;;;11.63;10.48;;;1.00;99.90;;;;;;4981847;28;20065;-42
2024/01/19 10:37:46;;;;;;;9.73;8.93;;;1.00;99.90;;;;;;4983674;28;20054;-40
2024/01/19 10:40:19;;;;;;;9.50;6.53;;;1.00;99.90;;;;;;4985883;28;20057;-41
2024/01/19 10:42:46;;;;;;;11.07;10.27;;;1.00;99.90;;;;;;4984900;28;20050;-41
2024/01/19 10:45:21;;;;;;;11.13;10.07;;;0.90;99.90;;;;;;4988521;28;20058;-41
2024/01/19 10:47:48;;;;;;;9.85;9.05;;;1.10;99.90;;;;;;4979145;28;20047;-40
2024/01/19 10:50:16;;;;;;;9.02;8.07;;;1.10;99.90;;;;;;4987005;28;20050;-43
2024/01/19 10:52:51;;;;;;;10.05;9.25;;;1.20;99.90;;;;;;4978214;28;20517;-42
2024/01/19 10:55:22;;;;;;;11.10;10.10;;;1.20;99.90;;;;;;4972306;28;20502;-42
2024/01/19 10:57:54;;;;;;;8.32;7.55;;;1.30;99.90;;;;;;4988297;28;20081;-43
2024/01/19 11:00:27;;;;;;;11.75;10.82;;;1.30;99.90;;;;;;4984576;28;20050;-42
2024/01/19 11:02:55;;;;;;;13.70;12.57;;;1.40;99.90;;;;;;4981865;28;20061;-43
2024/01/19 11:05:23;;;;;;;9.75;9.00;;;1.50;99.90;;;;;;4986181;28;20066;-42
2024/01/19 11:08:03;;;;;;;11.75;10.00;;;1.60;99.90;;;;;;4980249;28;20142;-43
2024/01/19 11:10:32;;;;;;;13.15;12.10;;;1.60;99.90;;;;;;4983579;28;20105;-43
2024/01/19 11:12:59;;;;;;;13.32;12.32;;;1.70;99.90;;;;;;4988965;28;20145;-43
2024/01/19 11:15:47;;;;;;;20.15;18.40;;;1.80;99.90;;;;;;4988035;28;20061;-42
2024/01/19 11:18:15;;;;;;;21.20;19.88;;;1.90;99.90;;;;;;4963276;28;20061;-41
2024/01/19 11:20:41;;;;;;;24.63;22.83;;;2.00;99.90;;;;;;4981661;28;20060;-42
2024/01/19 11:23:07;;;;;;;17.98;16.50;;;2.10;99.90;;;;;;4985571;28;20152;-43
2024/01/19 11:25:56;;;;;;;11.80;10.73;;;2.20;99.90;;;;;;4982787;28;20062;-42
2024/01/19 11:28:31;;;;;;;9.82;7.75;;;2.20;99.90;;;;;;4981621;28;20192;-42
2024/01/19 11:31:16;;;;;;;8.43;5.25;;;2.30;99.90;;;;;;4984749;28;20141;-43
2024/01/19 11:33:42;;;;;;;7.93;6.15;;;2.30;99.90;;;;;;4981660;28;20054;-41
2024/01/19 11:36:08;;;;;;;9.63;8.38;;;2.50;99.90;;;;;;4986240;28;20054;-42
2024/01/19 11:38:36;;;;;;;11.80;10.20;;;2.60;99.90;;;;;;4989821;28;20499;-43
2024/01/19 11:41:05;;;;;;;9.90;7.18;;;2.80;99.90;;;;;;4966056;28;20076;-44
2024/01/19 11:43:42;;;;;;;11.57;4.90;;;3.00;99.90;;;;;;4983445;28;20054;-42
2024/01/19 11:46:09;;;;;;;14.50;13.43;;;3.10;99.90;;;;;;4983746;28;20053;-41
2024/01/19 11:48:39;;;;;;;14.75;13.45;;;3.30;99.90;;;;;;4983272;28;20054;-42
2024/01/19 11:51:05;;;;;;;12.20;11.05;;;3.50;99.90;;;;;;4985136;28;20050;-43
2024/01/19 11:53:56;;;;;;;8.75;1.38;;;3.50;99.90;;;;;;4987234;28;20131;-43
2024/01/19 11:56:22;;;;;;;4.55;1.10;;;3.70;99.90;;;;;;4967452;28;20058;-42
2024/01/19 11:58:48;;;;;;;6.05;1.35;;;3.90;99.90;;;;;;4979165;28;20064;-42
2024/01/19 12:01:14;;;;;;;7.40;1.30;;;4.10;99.90;;;;;;4987403;28;20050;-41
2024/01/19 12:03:41;;;;;;;7.80;1.48;;;4.30;99.90;;;;;;4982939;28;20173;-41
2024/01/19 12:06:07;;;;;;;6.72;1.33;;;4.40;99.90;;;;;;4985309;28;20050;-44
2024/01/19 12:08:33;;;;;;;6.93;1.75;;;4.60;99.90;;;;;;4979501;28;20050;-43
2024/01/19 12:11:10;;;;;;;5.75;1.88;;;4.70;99.90;;;;;;4979592;28;20416;-44
2024/01/19 12:13:40;;;;;;;6.07;1.20;;;4.90;99.90;;;;;;4981752;28;20554;-42
2024/01/19 12:16:07;;;;;;;7.05;1.10;;;5.10;99.90;;;;;;4981206;28;20145;-43
2024/01/19 12:18:34;;;;;;;5.38;1.70;;;5.30;99.90;;;;;;4972270;28;20042;-44
2024/01/19 12:21:01;;;;;;;6.68;1.17;;;5.30;99.90;;;;;;4978383;28;20050;-43
2024/01/19 12:23:32;;;;;;;7.32;1.10;;;5.40;99.90;;;;;;4985575;28;20364;-43
2024/01/19 12:26:03;;;;;;;6.07;1.05;;;5.40;99.90;;;;;;4969633;28;20057;-42
2024/01/19 12:28:31;;;;;;;5.15;1.15;;;5.60;99.90;;;;;;4959969;28;20150;-44
2024/01/19 12:30:57;;;;;;;8.15;1.50;;;5.80;99.90;;;;;;4960493;28;20043;-44